Time;durP1;ratioP1;P1;durP2;ratioP2;P2;SDS_P1;SDS_P2;PMS_P1;PMS_P2;Temp;Humidity;BMP_temperature;BMP_pressure;BME280_temperature;BME280_humidity;BME280_pressure;Samples;Min_cycle;Max_cycle;Signal;HPM_P1;HPM_P2
2021/08/09 00:02:03;;;;;;;;;;;14.00;99.90;;;;;;5096997;28;19924;-77
2021/08/09 00:04:34;;;;;;;;;;;14.00;99.90;;;;;;5097231;28;20366;-77
2021/08/09 00:07:02;;;;;;;;;;;14.00;99.90;;;;;;5097209;28;19924;-77
2021/08/09 00:09:30;;;;;;;;;;;14.00;99.90;;;;;;5097241;28;19924;-77
2021/08/09 00:12:00;;;;;;;;;;;14.00;99.90;;;;;;5097241;28;19951;-76
2021/08/09 00:14:29;;;;;;;;;;;14.00;99.90;;;;;;5096966;28;19975;-76
2021/08/09 00:16:57;;;;;;;;;;;14.00;99.90;;;;;;5096965;28;20364;-77
2021/08/09 00:19:25;;;;;;;;;;;14.00;99.90;;;;;;5097118;28;19950;-77
2021/08/09 00:21:52;;;;;;;;;;;14.00;99.90;;;;;;5096687;28;19924;-77
2021/08/09 00:24:21;;;;;;;;;;;14.10;99.90;;;;;;5096723;28;19925;-77
2021/08/09 00:26:47;;;;;;;;;;;14.00;99.90;;;;;;5096771;28;19928;-78
2021/08/09 00:29:16;;;;;;;;;;;14.00;99.90;;;;;;5096923;28;19924;-78
2021/08/09 00:31:59;;;;;;;;;;;14.10;99.90;;;;;;5096830;28;19975;-76
2021/08/09 00:34:28;;;;;;;;;;;14.10;99.90;;;;;;5096604;28;20313;-77
2021/08/09 00:36:56;;;;;;;;;;;14.00;99.90;;;;;;5096584;28;19996;-76
2021/08/09 00:39:23;;;;;;;;;;;14.00;99.90;;;;;;5096459;28;19924;-77
2021/08/09 00:41:52;;;;;;;;;;;14.10;99.90;;;;;;5096403;28;19934;-77
2021/08/09 00:44:20;;;;;;;;;;;14.00;99.90;;;;;;5096412;28;19938;-77
2021/08/09 00:46:48;;;;;;;;;;;14.00;99.90;;;;;;5096525;28;20336;-77
2021/08/09 00:49:17;;;;;;;;;;;14.00;99.90;;;;;;5096556;28;19924;-77
2021/08/09 00:51:45;;;;;;;;;;;14.00;99.90;;;;;;5096197;28;19924;-79
2021/08/09 00:54:13;;;;;;;;;;;14.00;99.90;;;;;;5096286;28;19924;-77
2021/08/09 00:56:40;;;;;;;;;;;14.00;99.90;;;;;;5096033;28;19925;-78
2021/08/09 00:59:09;;;;;;;;;;;14.00;99.90;;;;;;5096133;28;20367;-77
2021/08/09 01:01:37;;;;;;;;;;;14.00;99.90;;;;;;5096386;28;19924;-79
2021/08/09 01:04:08;;;;;;;;;;;13.90;99.90;;;;;;5096061;28;19924;-79
2021/08/09 01:06:36;;;;;;;;;;;13.90;99.90;;;;;;5096212;28;19924;-78
2021/08/09 01:09:06;;;;;;;;;;;13.80;99.90;;;;;;5095975;28;19950;-78
2021/08/09 01:11:34;;;;;;;;;;;13.80;99.90;;;;;;5095906;28;20366;-77
2021/08/09 01:14:02;;;;;;;;;;;13.80;99.90;;;;;;5095855;28;19935;-77
2021/08/09 01:16:30;;;;;;;;;;;13.80;99.90;;;;;;5095660;28;20335;-79
2021/08/09 01:18:58;;;;;;;;;;;13.70;99.90;;;;;;5095796;28;19924;-77
2021/08/09 01:21:26;;;;;;;;;;;13.70;99.90;;;;;;5095682;28;19924;-77
2021/08/09 01:23:54;;;;;;;;;;;13.70;99.90;;;;;;5094843;28;20354;-77
2021/08/09 01:26:25;;;;;;;;;;;13.70;99.90;;;;;;5095453;28;19939;-77
2021/08/09 01:28:54;;;;;;;;;;;13.60;99.90;;;;;;5095508;28;20344;-77
2021/08/09 01:31:21;;;;;;;;;;;13.60;99.90;;;;;;5095674;28;19934;-77
2021/08/09 01:33:47;;;;;;;;;;;13.60;99.90;;;;;;5095813;28;19924;-77
2021/08/09 01:36:14;;;;;;;;;;;13.60;99.90;;;;;;5095725;28;19951;-79
2021/08/09 01:38:41;;;;;;;;;;;13.50;99.90;;;;;;5095666;28;19932;-79
2021/08/09 01:41:08;;;;;;;;;;;13.60;99.90;;;;;;5095387;28;19924;-78
2021/08/09 01:43:35;;;;;;;;;;;13.60;99.90;;;;;;5095623;28;19924;-77
2021/08/09 01:46:03;;;;;;;;;;;13.60;99.90;;;;;;5095397;28;20355;-78
2021/08/09 01:48:30;;;;;;;;;;;13.60;99.90;;;;;;5095619;28;19924;-78
2021/08/09 01:50:56;;;;;;;;;;;13.60;99.90;;;;;;5095572;28;20337;-77
2021/08/09 01:53:23;;;;;;;;;;;13.50;99.90;;;;;;5095348;28;19942;-77
2021/08/09 01:55:50;;;;;;;;;;;13.50;99.90;;;;;;5095043;28;19924;-78
2021/08/09 01:58:17;;;;;;;;;;;13.50;99.90;;;;;;5095161;28;19935;-79
2021/08/09 02:00:44;;;;;;;;;;;13.50;99.90;;;;;;5095080;28;20359;-77
2021/08/09 02:03:12;;;;;;;;;;;13.40;99.90;;;;;;5095132;28;19924;-77
2021/08/09 02:05:39;;;;;;;;;;;13.40;99.90;;;;;;5095193;28;20386;-78
2021/08/09 02:08:06;;;;;;;;;;;13.40;99.90;;;;;;5095150;28;20340;-77
2021/08/09 02:10:33;;;;;;;;;;;13.40;99.90;;;;;;5095082;28;19931;-78
2021/08/09 02:13:01;;;;;;;;;;;13.40;99.90;;;;;;5095081;28;19925;-79
2021/08/09 02:15:30;;;;;;;;;;;13.40;99.90;;;;;;5095223;28;19924;-78
2021/08/09 02:17:58;;;;;;;;;;;13.40;99.90;;;;;;5094994;28;19924;-78
2021/08/09 02:20:29;;;;;;;;;;;13.40;99.90;;;;;;5095013;28;19935;-77
2021/08/09 02:22:57;;;;;;;;;;;13.30;99.90;;;;;;5095078;28;20287;-78
2021/08/09 02:25:26;;;;;;;;;;;13.30;99.90;;;;;;5094986;28;19924;-77
2021/08/09 02:27:54;;;;;;;;;;;13.30;99.90;;;;;;5095166;28;19931;-77
2021/08/09 02:30:22;;;;;;;;;;;13.30;99.90;;;;;;5094916;28;20271;-77
2021/08/09 02:32:48;;;;;;;;;;;13.30;99.90;;;;;;5094933;28;19939;-78
2021/08/09 02:35:16;;;;;;;;;;;13.30;99.90;;;;;;5094823;28;20356;-77
2021/08/09 02:37:44;;;;;;;;;;;13.20;99.90;;;;;;5094804;28;20256;-77
2021/08/09 02:40:11;;;;;;;;;;;13.20;99.90;;;;;;5097581;28;19924;-79
2021/08/09 02:42:38;;;;;;;;;;;13.20;99.90;;;;;;5098756;28;19928;-77
2021/08/09 02:45:06;;;;;;;;;;;13.10;99.90;;;;;;5098851;28;19924;-78
2021/08/09 02:47:33;;;;;;;;;;;13.10;99.90;;;;;;5098651;28;19934;-77
2021/08/09 02:50:00;;;;;;;;;;;13.10;99.90;;;;;;5098732;28;20339;-77
2021/08/09 02:52:27;;;;;;;;;;;13.10;99.90;;;;;;5098874;28;19924;-76
2021/08/09 02:54:55;;;;;;;;;;;13.10;99.90;;;;;;5098556;28;20363;-77
2021/08/09 02:57:23;;;;;;;;;;;13.00;99.90;;;;;;5098520;28;19924;-77
2021/08/09 02:59:50;;;;;;;;;;;13.00;99.90;;;;;;5098589;28;19924;-77
2021/08/09 03:02:17;;;;;;;;;;;13.00;99.90;;;;;;5098572;28;20344;-76
2021/08/09 03:04:43;;;;;;;;;;;13.00;99.90;;;;;;5098262;28;19924;-76
2021/08/09 03:07:10;;;;;;;;;;;12.90;99.90;;;;;;5098517;28;19924;-77
2021/08/09 03:09:37;;;;;;;;;;;12.90;99.90;;;;;;5098516;28;20259;-77
2021/08/09 03:12:06;;;;;;;;;;;12.90;99.90;;;;;;5098325;28;19924;-77
2021/08/09 03:14:33;;;;;;;;;;;12.90;99.90;;;;;;5098224;28;20355;-76
2021/08/09 03:17:00;;;;;;;;;;;12.90;99.90;;;;;;5098148;28;19934;-77
2021/08/09 03:19:27;;;;;;;;;;;12.90;99.90;;;;;;5098338;28;19924;-76
2021/08/09 03:21:54;;;;;;;;;;;12.90;99.90;;;;;;5098160;28;19935;-77
2021/08/09 03:24:21;;;;;;;;;;;12.90;99.90;;;;;;5098127;28;19934;-76
2021/08/09 03:26:48;;;;;;;;;;;12.90;99.90;;;;;;5098091;28;19924;-77
2021/08/09 03:29:16;;;;;;;;;;;12.90;99.90;;;;;;5098022;28;20252;-77
2021/08/09 03:31:43;;;;;;;;;;;12.90;99.90;;;;;;5098041;28;19924;-79
2021/08/09 03:34:10;;;;;;;;;;;12.90;99.90;;;;;;5097983;28;19924;-77
2021/08/09 03:36:37;;;;;;;;;;;12.90;99.90;;;;;;5097858;28;20290;-76
2021/08/09 03:39:04;;;;;;;;;;;12.90;99.90;;;;;;5097731;28;20316;-77
2021/08/09 03:41:31;;;;;;;;;;;13.00;99.90;;;;;;5097633;28;19946;-76
2021/08/09 03:43:57;;;;;;;;;;;13.00;99.90;;;;;;5097681;28;19924;-77
2021/08/09 03:46:26;;;;;;;;;;;13.00;99.90;;;;;;5097485;28;19935;-77
2021/08/09 03:48:52;;;;;;;;;;;13.00;99.90;;;;;;5097454;28;19924;-76
2021/08/09 03:51:19;;;;;;;;;;;13.00;99.90;;;;;;5097322;28;19928;-76
2021/08/09 03:53:46;;;;;;;;;;;13.10;99.90;;;;;;5097524;28;19924;-76
2021/08/09 03:56:13;;;;;;;;;;;13.10;99.90;;;;;;5097176;28;19930;-77
2021/08/09 03:58:40;;;;;;;;;;;13.10;99.90;;;;;;5097352;28;19935;-76
2021/08/09 04:01:07;;;;;;;;;;;13.10;99.90;;;;;;5097296;28;19925;-76
2021/08/09 04:03:36;;;;;;;;;;;13.10;99.90;;;;;;5097401;28;19971;-76
2021/08/09 04:06:02;;;;;;;;;;;13.10;99.90;;;;;;5097084;28;19924;-77
2021/08/09 04:08:29;;;;;;;;;;;13.10;99.90;;;;;;5097337;28;19928;-76
2021/08/09 04:10:56;;;;;;;;;;;13.10;99.90;;;;;;5097002;28;20253;-76
2021/08/09 04:13:23;;;;;;;;;;;13.10;99.90;;;;;;5096939;28;19924;-78
2021/08/09 04:15:50;;;;;;;;;;;13.10;99.90;;;;;;5097202;28;19928;-76
2021/08/09 04:18:16;;;;;;;;;;;13.10;99.90;;;;;;5097160;28;19934;-76
2021/08/09 04:20:45;;;;;;;;;;;13.10;99.90;;;;;;5096901;28;20337;-78
2021/08/09 04:23:11;;;;;;;;;;;13.20;99.90;;;;;;5096793;28;19924;-78
2021/08/09 04:25:38;;;;;;;;;;;13.20;99.90;;;;;;5096768;28;20270;-77
2021/08/09 04:28:05;;;;;;;;;;;13.20;99.90;;;;;;5096669;28;19938;-76
2021/08/09 04:30:32;;;;;;;;;;;13.20;99.90;;;;;;5096652;28;19924;-78
2021/08/09 04:33:01;;;;;;;;;;;13.30;99.90;;;;;;5096987;28;19924;-76
2021/08/09 04:35:28;;;;;;;;;;;13.30;99.90;;;;;;5096758;28;19924;-79
2021/08/09 04:37:56;;;;;;;;;;;13.30;99.90;;;;;;5096608;28;19928;-76
2021/08/09 04:40:23;;;;;;;;;;;13.30;99.90;;;;;;5096461;28;19924;-76
2021/08/09 04:42:50;;;;;;;;;;;13.40;99.90;;;;;;5096285;28;19939;-77
2021/08/09 04:45:17;;;;;;;;;;;13.40;99.90;;;;;;5096643;28;19924;-79
2021/08/09 04:47:44;;;;;;;;;;;13.40;99.90;;;;;;5096543;28;19931;-76
2021/08/09 04:50:11;;;;;;;;;;;13.40;99.90;;;;;;5096413;28;19964;-77
2021/08/09 04:52:39;;;;;;;;;;;13.50;99.90;;;;;;5096230;28;19924;-77
2021/08/09 04:55:08;;;;;;;;;;;13.50;99.90;;;;;;5096288;28;20351;-76
2021/08/09 04:57:35;;;;;;;;;;;13.50;99.90;;;;;;5095957;28;20364;-77
2021/08/09 05:00:02;;;;;;;;;;;13.50;99.90;;;;;;5096073;28;19931;-78
2021/08/09 05:02:29;;;;;;;;;;;13.50;99.90;;;;;;5095574;28;20023;-78
2021/08/09 05:04:56;;;;;;;;;;;13.50;99.90;;;;;;5096290;28;19924;-77
2021/08/09 05:07:22;;;;;;;;;;;13.60;99.90;;;;;;5096061;28;19928;-76
2021/08/09 05:09:49;;;;;;;;;;;13.60;99.90;;;;;;5095857;28;19930;-76
2021/08/09 05:12:17;;;;;;;;;;;13.60;99.90;;;;;;5096136;28;19924;-77
2021/08/09 05:14:44;;;;;;;;;;;13.50;99.90;;;;;;5095867;28;19924;-77
2021/08/09 05:17:11;;;;;;;;;;;13.60;99.90;;;;;;5095807;28;19939;-77
2021/08/09 05:19:38;;;;;;;;;;;13.50;99.90;;;;;;5095868;28;19935;-77
2021/08/09 05:22:05;;;;;;;;;;;13.60;99.90;;;;;;5095649;28;20348;-76
2021/08/09 05:24:31;;;;;;;;;;;13.60;99.90;;;;;;5095578;28;19935;-78
2021/08/09 05:26:58;;;;;;;;;;;13.60;99.90;;;;;;5095948;28;19924;-77
2021/08/09 05:29:27;;;;;;;;;;;13.60;99.90;;;;;;5095799;28;19932;-77
2021/08/09 05:31:53;;;;;;;;;;;13.60;99.90;;;;;;5095508;28;19924;-77
2021/08/09 05:34:20;;;;;;;;;;;13.60;99.90;;;;;;5095642;28;19934;-77
2021/08/09 05:36:47;;;;;;;;;;;13.60;99.90;;;;;;5095463;28;19924;-77
2021/08/09 05:39:14;;;;;;;;;;;13.70;99.90;;;;;;5095477;28;19924;-77
2021/08/09 05:41:41;;;;;;;;;;;13.70;99.90;;;;;;5095663;28;19938;-76
2021/08/09 05:44:08;;;;;;;;;;;13.70;99.90;;;;;;5095542;28;19938;-76
2021/08/09 05:46:36;;;;;;;;;;;13.70;99.90;;;;;;5095432;28;19923;-76
2021/08/09 05:49:04;;;;;;;;;;;13.70;99.90;;;;;;5095461;28;19924;-78
2021/08/09 05:51:34;;;;;;;;;;;13.80;99.90;;;;;;5095477;28;19928;-77
2021/08/09 05:54:01;;;;;;;;;;;13.80;99.90;;;;;;5095273;28;20385;-76
2021/08/09 05:56:28;;;;;;;;;;;13.80;99.90;;;;;;5095070;28;20363;-77
2021/08/09 05:58:55;;;;;;;;;;;13.90;99.90;;;;;;5095385;28;19927;-77
2021/08/09 06:01:22;;;;;;;;;;;13.90;99.90;;;;;;5095384;28;19924;-78
2021/08/09 06:03:50;;;;;;;;;;;13.90;99.90;;;;;;5095100;28;20336;-77
2021/08/09 06:06:17;;;;;;;;;;;13.90;99.90;;;;;;5095201;28;19924;-79
2021/08/09 06:08:44;;;;;;;;;;;13.90;99.90;;;;;;5095159;28;20311;-81
2021/08/09 06:11:11;;;;;;;;;;;13.80;99.90;;;;;;5095062;28;19938;-81
2021/08/09 06:13:38;;;;;;;;;;;13.80;99.90;;;;;;5097048;28;19924;-81
2021/08/09 06:16:05;;;;;;;;;;;13.80;99.90;;;;;;5099613;28;19924;-82
2021/08/09 06:18:32;;;;;;;;;;;13.80;99.90;;;;;;5099186;28;19928;-81
2021/08/09 06:21:00;;;;;;;;;;;13.70;99.90;;;;;;5099631;28;19950;-81
2021/08/09 06:23:27;;;;;;;;;;;13.80;99.90;;;;;;5099045;28;19931;-81
2021/08/09 06:25:55;;;;;;;;;;;13.70;99.90;;;;;;5099069;28;19932;-79
2021/08/09 06:28:21;;;;;;;;;;;13.80;99.90;;;;;;5099304;28;19932;-80
2021/08/09 06:30:48;;;;;;;;;;;13.80;99.90;;;;;;5099220;28;19935;-80
2021/08/09 06:33:15;;;;;;;;;;;13.80;99.90;;;;;;5098969;28;20251;-80
2021/08/09 06:35:42;;;;;;;;;;;13.90;99.90;;;;;;5098912;28;19934;-79
2021/08/09 06:38:10;;;;;;;;;;;13.90;99.90;;;;;;5098875;28;19924;-79
2021/08/09 06:40:37;;;;;;;;;;;14.00;99.90;;;;;;5099149;28;20320;-79
2021/08/09 06:43:04;;;;;;;;;;;14.00;99.90;;;;;;5098676;28;20339;-80
2021/08/09 06:45:31;;;;;;;;;;;14.00;99.90;;;;;;5098823;28;19924;-81
2021/08/09 06:47:57;;;;;;;;;;;14.00;99.90;;;;;;5098706;28;20348;-82
2021/08/09 06:50:26;;;;;;;;;;;14.00;99.90;;;;;;5098536;28;19924;-81
2021/08/09 06:52:54;;;;;;;;;;;14.10;99.90;;;;;;5098522;28;20374;-81
2021/08/09 06:55:23;;;;;;;;;;;14.10;99.90;;;;;;5098667;28;19924;-81
2021/08/09 06:57:52;;;;;;;;;;;14.10;99.90;;;;;;5098401;28;20271;-81
2021/08/09 07:00:20;;;;;;;;;;;14.10;99.90;;;;;;5098576;28;19934;-79
2021/08/09 07:02:48;;;;;;;;;;;14.20;99.90;;;;;;5098346;28;19931;-79
2021/08/09 07:05:16;;;;;;;;;;;14.10;99.90;;;;;;5098438;28;19930;-81
2021/08/09 07:07:44;;;;;;;;;;;14.20;99.90;;;;;;5098541;28;19928;-79
2021/08/09 07:10:12;;;;;;;;;;;14.20;99.90;;;;;;5098484;28;19939;-78
2021/08/09 07:12:42;;;;;;;;;;;14.20;99.90;;;;;;5098509;28;19924;-77
2021/08/09 07:15:10;;;;;;;;;;;14.20;99.90;;;;;;5098214;28;20364;-77
2021/08/09 07:17:41;;;;;;;;;;;14.20;99.90;;;;;;5098361;28;19925;-78
2021/08/09 07:20:10;;;;;;;;;;;14.20;99.90;;;;;;5098348;28;19934;-78
2021/08/09 07:22:42;;;;;;;;;;;14.20;99.90;;;;;;5098027;28;20344;-77
2021/08/09 07:25:10;;;;;;;;;;;14.10;99.90;;;;;;5097403;28;19935;-77
2021/08/09 07:27:38;;;;;;;;;;;14.10;99.90;;;;;;5097952;28;20370;-77
2021/08/09 07:30:09;;;;;;;;;;;14.10;99.90;;;;;;5097936;28;19924;-77
2021/08/09 07:32:37;;;;;;;;;;;14.10;99.90;;;;;;5098233;28;20005;-78
2021/08/09 07:35:05;;;;;;;;;;;14.10;99.90;;;;;;5097928;28;19935;-78
2021/08/09 07:37:33;;;;;;;;;;;14.10;99.90;;;;;;5097877;28;19936;-78
2021/08/09 07:40:01;;;;;;;;;;;14.10;99.90;;;;;;5097822;28;19924;-77
2021/08/09 07:42:29;;;;;;;;;;;14.20;99.90;;;;;;5097732;28;20352;-79
2021/08/09 07:45:00;;;;;;;;;;;14.20;99.90;;;;;;5097711;28;19931;-79
2021/08/09 07:47:29;;;;;;;;;;;14.20;99.90;;;;;;5097640;28;20364;-80
2021/08/09 07:49:59;;;;;;;;;;;14.30;99.90;;;;;;5097745;28;19925;-80
2021/08/09 07:52:27;;;;;;;;;;;14.30;99.90;;;;;;5097579;28;19957;-80
2021/08/09 07:54:56;;;;;;;;;;;14.30;99.90;;;;;;5097458;28;19928;-81
2021/08/09 07:57:24;;;;;;;;;;;14.30;99.90;;;;;;5097106;28;19990;-80
2021/08/09 07:59:53;;;;;;;;;;;14.40;99.90;;;;;;5097246;28;19928;-80
2021/08/09 08:02:22;;;;;;;;;;;14.50;99.90;;;;;;5097179;28;19950;-80
2021/08/09 08:04:51;;;;;;;;;;;14.60;99.90;;;;;;5097362;28;19924;-80
2021/08/09 08:07:19;;;;;;;;;;;14.60;99.90;;;;;;5097421;28;19950;-80
2021/08/09 08:09:50;;;;;;;;;;;14.70;99.90;;;;;;5097120;28;19924;-80
2021/08/09 08:12:18;;;;;;;;;;;14.80;99.90;;;;;;5097085;28;19932;-80
2021/08/09 08:14:46;;;;;;;;;;;14.90;99.90;;;;;;5097044;28;19935;-81
2021/08/09 08:17:14;;;;;;;;;;;14.90;99.90;;;;;;5097117;28;20270;-81
2021/08/09 08:19:43;;;;;;;;;;;14.90;99.90;;;;;;5097071;28;19924;-79
2021/08/09 08:22:15;;;;;;;;;;;14.90;99.90;;;;;;5097079;28;19934;-79
2021/08/09 08:24:43;;;;;;;;;;;14.90;99.90;;;;;;5096976;28;20351;-79
2021/08/09 08:27:12;;;;;;;;;;;14.90;99.90;;;;;;5097040;28;19935;-79
2021/08/09 08:29:42;;;;;;;;;;;14.90;99.90;;;;;;5097161;28;19924;-80
2021/08/09 08:32:10;;;;;;;;;;;14.90;99.90;;;;;;5096886;28;19924;-82
2021/08/09 08:34:38;;;;;;;;;;;14.90;99.90;;;;;;5096966;28;19923;-81
2021/08/09 08:37:08;;;;;;;;;;;15.00;99.90;;;;;;5096133;28;19931;-83
2021/08/09 08:39:38;;;;;;;;;;;15.10;99.90;;;;;;5097012;28;19945;-80
2021/08/09 08:42:06;;;;;;;;;;;15.20;99.90;;;;;;5096849;28;20262;-81
2021/08/09 08:44:34;;;;;;;;;;;15.30;99.90;;;;;;5096741;28;19924;-82
2021/08/09 08:47:02;;;;;;;;;;;15.40;99.90;;;;;;5096516;28;20019;-78
2021/08/09 08:49:29;;;;;;;;;;;15.60;99.90;;;;;;5096378;28;19924;-79
2021/08/09 08:51:57;;;;;;;;;;;15.70;99.90;;;;;;5096346;28;19954;-79
2021/08/09 08:54:25;;;;;;;;;;;15.80;99.90;;;;;;5096195;28;19939;-81
2021/08/09 08:56:58;;;;;;;;;;;16.00;99.90;;;;;;5096232;28;20267;-79
2021/08/09 08:59:25;;;;;;;;;;;16.20;99.90;;;;;;5096326;28;20023;-79
2021/08/09 09:01:54;;;;;;;;;;;16.40;99.90;;;;;;5096032;28;19924;-81
2021/08/09 09:04:22;;;;;;;;;;;16.50;99.90;;;;;;5096321;28;19948;-81
2021/08/09 09:06:56;;;;;;;;;;;16.60;99.90;;;;;;5096035;28;20348;-81
2021/08/09 09:09:24;;;;;;;;;;;16.60;99.90;;;;;;5096009;28;20026;-81
2021/08/09 09:11:56;;;;;;;;;;;16.80;99.90;;;;;;5095927;28;19928;-80
2021/08/09 09:14:29;;;;;;;;;;;16.90;99.90;;;;;;5095944;28;19973;-80
2021/08/09 09:17:00;;;;;;;;;;;17.10;99.90;;;;;;5096078;28;19924;-80
2021/08/09 09:19:32;;;;;;;;;;;17.30;99.90;;;;;;5095564;28;20359;-80
2021/08/09 09:22:03;;;;;;;;;;;17.30;99.90;;;;;;5093109;28;20363;-80
2021/08/09 09:24:34;;;;;;;;;;;17.30;99.90;;;;;;5095812;28;19979;-80
2021/08/09 09:27:03;;;;;;;;;;;17.20;99.90;;;;;;5095799;28;19947;-80
2021/08/09 09:29:39;;;;;;;;;;;17.30;99.90;;;;;;5095580;28;19996;-80
2021/08/09 09:32:16;;;;;;;;;;;17.40;99.90;;;;;;5095627;28;19931;-80
2021/08/09 09:34:48;;;;;;;;;;;17.40;99.90;;;;;;5095563;28;20304;-80
2021/08/09 09:37:27;;;;;;;;;;;17.30;99.90;;;;;;5095875;28;20345;-80
2021/08/09 09:39:55;;;;;;;;;;;17.30;99.90;;;;;;5095353;28;19924;-80
2021/08/09 09:42:23;;;;;;;;;;;17.20;99.90;;;;;;5095193;28;19924;-80
2021/08/09 09:44:56;;;;;;;;;;;17.20;99.90;;;;;;5095208;28;19924;-79
2021/08/09 09:47:25;;;;;;;;;;;17.30;99.90;;;;;;5095419;28;20348;-80
2021/08/09 09:49:57;;;;;;;;;;;17.40;99.90;;;;;;5095202;28;20378;-80
2021/08/09 09:52:31;;;;;;;;;;;17.50;99.90;;;;;;5095417;28;20434;-80
2021/08/09 09:55:00;;;;;;;;;;;17.60;99.90;;;;;;5095439;28;19968;-80
2021/08/09 09:57:28;;;;;;;;;;;17.60;99.90;;;;;;5095282;28;19924;-79
2021/08/09 10:00:03;;;;;;;;;;;17.70;99.90;;;;;;5094710;28;20119;-79
2021/08/09 10:02:32;;;;;;;;;;;17.70;99.90;;;;;;5095249;28;19982;-79
2021/08/09 10:05:08;;;;;;;;;;;17.70;99.90;;;;;;5095147;28;19928;-80
2021/08/09 10:07:37;;;;;;;;;;;17.80;99.90;;;;;;5095518;28;20400;-80
2021/08/09 10:10:05;;;;;;;;;;;17.80;99.90;;;;;;5095077;28;20381;-79
2021/08/09 10:12:34;;;;;;;;;;;17.90;99.90;;;;;;5095183;28;19931;-79
2021/08/09 10:15:10;;;;;;;;;;;17.80;99.90;;;;;;5095433;28;19924;-79
2021/08/09 10:17:38;;;;;;;;;;;17.70;99.90;;;;;;5095398;28;19935;-80
2021/08/09 10:20:07;;;;;;;;;;;17.70;99.90;;;;;;5095123;28;19928;-80
2021/08/09 10:22:34;;;;;;;;;;;17.50;99.90;;;;;;5095067;28;19924;-80
2021/08/09 10:25:03;;;;;;;;;;;17.30;99.90;;;;;;5095071;28;19924;-80
2021/08/09 10:27:51;;;;;;;;;;;17.20;99.90;;;;;;5095134;28;19928;-80
2021/08/09 10:30:20;;;;;;;;;;;17.00;99.90;;;;;;5094924;28;19924;-80
2021/08/09 10:32:48;;;;;;;;;;;16.90;99.90;;;;;;5095490;28;20035;-80
2021/08/09 10:35:33;;;;;;;;;;;17.00;99.90;;;;;;5095022;28;19934;-79
2021/08/09 10:38:10;;;;;;;;;;;17.10;99.90;;;;;;5094700;28;20377;-79
2021/08/09 10:40:38;;;;;;;;;;;17.20;99.90;;;;;;5094943;28;19931;-79
2021/08/09 10:43:06;;;;;;;;;;;17.30;99.90;;;;;;5095187;28;19932;-79
2021/08/09 10:45:49;;;;;;;;;;;17.40;99.90;;;;;;5094829;28;19935;-80
2021/08/09 10:48:40;;;;;;;;;;;17.50;99.90;;;;;;5094942;28;19930;-80
2021/08/09 10:51:08;;;;;;;;;;;17.60;99.90;;;;;;5094821;28;19935;-80
2021/08/09 10:53:43;;;;;;;;;;;17.70;99.90;;;;;;5095092;28;19924;-80
2021/08/09 10:56:10;;;;;;;;;;;17.70;99.90;;;;;;5094656;28;19935;-79
2021/08/09 10:58:54;;;;;;;;;;;17.60;99.90;;;;;;5094765;28;19931;-79
2021/08/09 11:01:24;;;;;;;;;;;17.60;99.90;;;;;;5097460;28;19979;-79
2021/08/09 11:04:12;;;;;;;;;;;17.60;99.90;;;;;;5098496;28;20302;-80
2021/08/09 11:06:40;;;;;;;;;;;17.60;99.90;;;;;;5098194;28;19924;-79
2021/08/09 11:09:24;;;;;;;;;;;17.70;99.90;;;;;;5098568;28;19974;-79
2021/08/09 11:12:09;;;;;;;;;;;17.70;99.90;;;;;;5093739;28;19931;-79
2021/08/09 11:14:56;;;;;;;;;;;17.70;99.90;;;;;;5098356;28;19951;-80
2021/08/09 11:17:26;;;;;;;;;;;17.70;99.90;;;;;;5090168;28;19953;-79
2021/08/09 11:19:54;;;;;;;;;;;17.70;99.90;;;;;;5098079;28;19935;-77
2021/08/09 11:22:22;;;;;;;;;;;17.70;99.90;;;;;;5098110;28;20401;-79
2021/08/09 11:24:50;;;;;;;;;;;17.70;99.90;;;;;;5098181;28;19924;-79
2021/08/09 11:27:18;;;;;;;;;;;17.70;99.90;;;;;;5097841;28;20252;-80
2021/08/09 11:29:54;;;;;;;;;;;17.70;99.90;;;;;;5098043;28;19924;-79
2021/08/09 11:32:42;;;;;;;;;;;17.70;99.90;;;;;;5095200;28;19963;-79
2021/08/09 11:35:10;;;;;;;;;;;17.70;99.90;;;;;;5096418;28;20360;-79
2021/08/09 11:37:54;;;;;;;;;;;17.70;99.90;;;;;;5097421;28;19924;-79
2021/08/09 11:40:37;;;;;;;;;;;17.70;99.90;;;;;;5095061;28;19927;-79
2021/08/09 11:43:05;;;;;;;;;;;17.70;99.90;;;;;;5095345;28;19935;-79
2021/08/09 11:45:35;;;;;;;;;;;17.80;99.90;;;;;;5097119;28;20344;-80
2021/08/09 11:48:08;;;;;;;;;;;17.80;99.90;;;;;;5094941;28;20041;-80
2021/08/09 11:50:42;;;;;;;;;;;17.70;99.90;;;;;;5097305;28;19924;-80
2021/08/09 11:53:19;;;;;;;;;;;17.70;99.90;;;;;;5097147;28;19967;-80
2021/08/09 11:55:47;;;;;;;;;;;17.80;99.90;;;;;;5097433;28;19928;-80
2021/08/09 11:58:28;;;;;;;;;;;17.80;99.90;;;;;;5097256;28;19924;-80
2021/08/09 12:00:56;;;;;;;;;;;17.90;99.90;;;;;;5097616;28;19938;-80
2021/08/09 12:03:27;;;;;;;;;;;18.00;99.90;;;;;;5097387;28;20348;-80
2021/08/09 12:05:56;;;;;;;;;;;18.00;99.90;;;;;;5097309;28;20272;-77
2021/08/09 12:08:23;;;;;;;;;;;18.00;99.90;;;;;;5097260;28;19931;-81
2021/08/09 12:10:50;;;;;;;;;;;18.00;99.90;;;;;;5097001;28;20466;-81
2021/08/09 12:13:21;;;;;;;;;;;18.00;99.90;;;;;;5097344;28;19934;-80
2021/08/09 12:16:03;;;;;;;;;;;18.10;99.90;;;;;;5097047;28;19924;-80
2021/08/09 12:18:31;;;;;;;;;;;18.10;99.90;;;;;;5091221;28;19928;-80
2021/08/09 12:21:07;;;;;;;;;;;18.10;99.90;;;;;;5096964;28;19924;-80
2021/08/09 12:23:33;;;;;;;;;;;18.10;99.90;;;;;;5096814;28;19950;-80
2021/08/09 12:26:00;;;;;;;;;;;18.20;99.90;;;;;;5096684;28;19924;-80
2021/08/09 12:28:29;;;;;;;;;;;18.20;99.90;;;;;;5096881;28;19934;-80
2021/08/09 12:30:56;;;;;;;;;;;18.20;99.90;;;;;;5096621;28;19928;-80
2021/08/09 12:33:23;;;;;;;;;;;18.30;99.90;;;;;;5095919;28;20358;-79
2021/08/09 12:35:51;;;;;;;;;;;18.30;99.90;;;;;;5096538;28;20011;-79
2021/08/09 12:38:18;;;;;;;;;;;18.40;99.90;;;;;;5096408;28;19924;-80
2021/08/09 12:40:45;;;;;;;;;;;18.50;99.90;;;;;;5096562;28;19924;-80
2021/08/09 12:43:13;;;;;;;;;;;18.40;99.90;;;;;;5096517;28;19934;-80
2021/08/09 12:45:40;;;;;;;;;;;18.40;99.90;;;;;;5096130;28;19924;-80
2021/08/09 12:48:07;;;;;;;;;;;18.40;99.90;;;;;;5096492;28;19924;-80
2021/08/09 12:50:34;;;;;;;;;;;18.40;99.90;;;;;;5096536;28;19924;-80
2021/08/09 12:53:03;;;;;;;;;;;18.40;99.90;;;;;;5096225;28;19924;-80
2021/08/09 12:55:30;;;;;;;;;;;18.50;99.90;;;;;;5096385;28;19931;-80
2021/08/09 12:57:57;;;;;;;;;;;18.60;99.90;;;;;;5096072;28;19938;-79
2021/08/09 13:00:24;;;;;;;;;;;18.70;99.90;;;;;;5096399;28;19924;-79
2021/08/09 13:02:51;;;;;;;;;;;18.80;99.90;;;;;;5096331;28;19975;-79
2021/08/09 13:05:18;;;;;;;;;;;18.80;99.90;;;;;;5095840;28;20251;-79
2021/08/09 13:07:45;;;;;;;;;;;18.80;99.90;;;;;;5096039;28;19924;-79
2021/08/09 13:10:13;;;;;;;;;;;18.80;99.90;;;;;;5095997;28;19947;-79
2021/08/09 13:12:40;;;;;;;;;;;18.90;99.90;;;;;;5095931;28;19934;-79
2021/08/09 13:15:07;;;;;;;;;;;18.90;99.90;;;;;;5095846;28;19934;-79
2021/08/09 13:17:34;;;;;;;;;;;18.90;99.90;;;;;;5095709;28;20342;-79
2021/08/09 13:20:01;;;;;;;;;;;19.00;99.90;;;;;;5095890;28;19950;-79
2021/08/09 13:22:30;;;;;;;;;;;19.10;99.90;;;;;;5095323;28;19934;-79
2021/08/09 13:24:58;;;;;;;;;;;19.30;99.90;;;;;;5095827;28;19928;-79
2021/08/09 13:27:30;;;;;;;;;;;19.20;99.90;;;;;;5095583;28;20033;-79
2021/08/09 13:29:58;;;;;;;;;;;19.20;99.90;;;;;;5095973;28;19924;-79
2021/08/09 13:32:27;;;;;;;;;;;19.10;99.90;;;;;;5095750;28;19935;-79
2021/08/09 13:34:55;;;;;;;;;;;19.10;99.90;;;;;;5095282;28;19935;-79
2021/08/09 13:37:22;;;;;;;;;;;19.10;99.90;;;;;;5095567;28;19924;-79
2021/08/09 13:39:50;;;;;;;;;;;19.20;99.90;;;;;;5095556;28;20352;-80
2021/08/09 13:42:17;;;;;;;;;;;19.20;99.90;;;;;;5095306;28;19924;-87
2021/08/09 13:44:49;;;;;;;;;;;19.20;99.90;;;;;;5095173;28;19936;-82
2021/08/09 13:47:16;;;;;;;;;;;19.00;99.90;;;;;;5095597;28;20332;-83
2021/08/09 13:49:44;;;;;;;;;;;18.90;99.90;;;;;;5094877;28;20332;-82
2021/08/09 13:52:12;;;;;;;;;;;18.80;99.90;;;;;;5094760;28;19924;-82
2021/08/09 13:54:43;;;;;;;;;;;18.80;99.90;;;;;;5095099;28;20292;-81
2021/08/09 13:57:12;;;;;;;;;;;18.80;99.90;;;;;;5094520;28;19966;-82
2021/08/09 13:59:40;;;;;;;;;;;18.80;99.90;;;;;;5096435;28;19934;-83
2021/08/09 14:02:11;;;;;;;;;;;18.80;99.90;;;;;;5098366;28;19934;-84
2021/08/09 14:04:39;;;;;;;;;;;18.80;99.90;;;;;;5097990;28;19928;-79
2021/08/09 14:07:08;;;;;;;;;;;18.80;99.90;;;;;;5095194;28;20272;-81
2021/08/09 14:09:35;;;;;;;;;;;18.80;99.90;;;;;;5095152;28;19931;-82
2021/08/09 14:12:02;;;;;;;;;;;18.90;99.90;;;;;;5095435;28;19932;-82
2021/08/09 14:14:33;;;;;;;;;;;18.90;99.90;;;;;;5095124;28;19966;-82
2021/08/09 14:17:03;;;;;;;;;;;19.10;99.90;;;;;;5095126;28;19924;-82
2021/08/09 14:19:33;;;;;;;;;;;19.20;99.90;;;;;;5095129;28;20336;-82
2021/08/09 14:22:01;;;;;;;;;;;19.20;99.90;;;;;;5095406;28;19950;-82
2021/08/09 14:24:33;;;;;;;;;;;19.30;99.90;;;;;;5095060;28;19928;-82
2021/08/09 14:27:04;;;;;;;;;;;19.30;99.90;;;;;;5095095;28;19979;-81